Time;durP1;ratioP1;P1;durP2;ratioP2;P2;SDS_P1;SDS_P2;PMS_P1;PMS_P2;Temp;Humidity;BMP_temperature;BMP_pressure;BME280_temperature;BME280_humidity;BME280_pressure;Samples;Min_cycle;Max_cycle;Signal;HPM_P1;HPM_P2
2022/11/29 00:01:06;;;;;;;117.68;40.08;;;8.60;99.90;;;;;;5016608;28;20088;-91
2022/11/29 00:03:34;;;;;;;103.97;36.40;;;8.60;99.90;;;;;;5010658;28;20567;-90
2022/11/29 00:06:04;;;;;;;88.15;33.55;;;8.60;99.90;;;;;;5016058;28;20026;-90
2022/11/29 00:08:30;;;;;;;99.95;33.60;;;8.60;99.90;;;;;;5016246;28;20479;-90
2022/11/29 00:10:55;;;;;;;114.47;36.88;;;8.60;99.90;;;;;;5014355;28;20061;-92
2022/11/29 00:13:21;;;;;;;96.20;34.72;;;8.60;99.90;;;;;;5015402;28;20043;-92
2022/11/29 00:15:47;;;;;;;97.18;34.67;;;8.50;99.90;;;;;;5013826;28;20092;-91
2022/11/29 00:18:12;;;;;;;124.47;35.33;;;8.60;99.90;;;;;;5033205;28;20117;-92
2022/11/29 00:20:38;;;;;;;102.85;33.42;;;8.60;99.90;;;;;;5011912;28;20369;-90
2022/11/29 00:23:04;;;;;;;122.60;38.60;;;8.60;99.90;;;;;;5015411;28;20483;-91
2022/11/29 00:25:30;;;;;;;97.38;35.08;;;8.60;99.90;;;;;;5016486;28;20040;-92
2022/11/29 00:27:56;;;;;;;107.55;37.83;;;8.60;99.90;;;;;;5016424;28;20036;-93
2022/11/29 00:30:21;;;;;;;102.32;38.53;;;8.60;99.90;;;;;;5013394;28;20030;-91
2022/11/29 00:32:47;;;;;;;142.45;41.03;;;8.60;99.90;;;;;;5016520;28;20403;-92
2022/11/29 00:35:13;;;;;;;113.82;39.30;;;8.60;99.90;;;;;;5038689;28;20072;-92
2022/11/29 00:37:39;;;;;;;114.07;37.92;;;8.60;99.90;;;;;;5039840;28;20021;-92
2022/11/29 00:40:05;;;;;;;101.95;37.05;;;8.60;99.90;;;;;;5029416;28;20032;-91
2022/11/29 00:42:31;;;;;;;117.75;37.08;;;8.60;99.90;;;;;;5019738;28;20391;-92
2022/11/29 00:44:57;;;;;;;124.70;35.42;;;8.60;99.90;;;;;;5016156;28;20018;-91
2022/11/29 00:47:22;;;;;;;116.10;35.78;;;8.60;99.90;;;;;;5033197;28;20064;-91
2022/11/29 00:49:48;;;;;;;127.55;38.67;;;8.60;99.90;;;;;;5016892;28;20096;-93
2022/11/29 00:52:14;;;;;;;106.15;36.03;;;8.60;99.90;;;;;;5014081;28;20120;-92
2022/11/29 00:54:40;;;;;;;105.85;36.72;;;8.60;99.90;;;;;;5024640;28;20032;-92
2022/11/29 00:57:08;;;;;;;108.35;36.45;;;8.60;99.90;;;;;;5021495;28;20399;-91
2022/11/29 00:59:33;;;;;;;125.93;38.53;;;8.60;99.90;;;;;;5007703;28;20037;-93
2022/11/29 01:01:59;;;;;;;144.82;41.20;;;8.60;99.90;;;;;;5010684;28;20018;-93
2022/11/29 01:04:25;;;;;;;170.52;39.05;;;8.60;99.90;;;;;;5012549;28;20411;-92
2022/11/29 01:06:51;;;;;;;111.03;38.13;;;8.60;99.90;;;;;;5016148;28;20040;-92
2022/11/29 01:09:18;;;;;;;135.52;40.58;;;8.60;99.90;;;;;;5013811;28;20451;-91
2022/11/29 01:11:43;;;;;;;115.28;40.75;;;8.60;99.90;;;;;;5015939;28;20025;-92
2022/11/29 01:14:11;;;;;;;110.80;39.15;;;8.60;99.90;;;;;;5013759;28;20073;-91
2022/11/29 01:16:36;;;;;;;105.22;38.67;;;8.60;99.90;;;;;;5017230;28;20408;-93
2022/11/29 01:19:02;;;;;;;126.22;41.38;;;8.60;99.90;;;;;;5012412;28;20109;-91
2022/11/29 01:21:29;;;;;;;129.45;40.42;;;8.70;99.90;;;;;;5008238;28;20026;-92
2022/11/29 01:23:55;;;;;;;130.30;40.30;;;8.70;99.90;;;;;;5011090;28;20455;-92
2022/11/29 01:26:25;;;;;;;115.85;41.20;;;8.60;99.90;;;;;;5009358;28;20038;-91
2022/11/29 01:28:53;;;;;;;120.13;40.05;;;8.70;99.90;;;;;;5014636;28;20109;-92
2022/11/29 01:31:21;;;;;;;113.38;40.58;;;8.70;99.90;;;;;;5009635;28;20030;-91
2022/11/29 01:33:47;;;;;;;120.60;38.95;;;8.70;99.90;;;;;;5015852;28;20064;-92
2022/11/29 01:36:13;;;;;;;124.85;40.33;;;8.70;99.90;;;;;;5012676;28;20018;-91
2022/11/29 01:38:41;;;;;;;122.10;42.03;;;8.70;99.90;;;;;;5005326;28;20056;-92
2022/11/29 01:41:13;;;;;;;128.60;41.03;;;8.70;99.90;;;;;;5014331;28;20022;-91
2022/11/29 01:44:01;;;;;;;131.60;41.58;;;8.70;99.90;;;;;;5032621;28;20042;-92
2022/11/29 01:46:35;;;;;;;137.93;42.55;;;8.70;99.90;;;;;;5009190;28;20138;-92
2022/11/29 01:49:19;;;;;;;141.30;41.50;;;8.80;99.90;;;;;;5003506;28;20054;-92
2022/11/29 01:52:13;;;;;;;135.75;39.53;;;8.70;99.90;;;;;;5010732;28;20030;-91
2022/11/29 01:54:45;;;;;;;107.70;38.75;;;8.70;99.90;;;;;;5013457;28;20037;-91
2022/11/29 01:57:12;;;;;;;132.43;41.08;;;8.80;99.90;;;;;;5012218;28;20061;-92
2022/11/29 01:59:44;;;;;;;147.23;43.00;;;8.80;99.90;;;;;;5014195;28;20018;-91
2022/11/29 02:02:13;;;;;;;178.70;42.75;;;8.80;99.90;;;;;;5011845;28;20947;-91
2022/11/29 02:04:42;;;;;;;284.08;42.28;;;8.80;99.90;;;;;;5016001;28;20029;-93
2022/11/29 02:07:08;;;;;;;190.88;40.78;;;8.80;99.90;;;;;;5013819;28;20030;-92
2022/11/29 02:09:34;;;;;;;211.80;43.08;;;8.70;99.90;;;;;;5012175;28;20487;-92
2022/11/29 02:12:15;;;;;;;279.08;46.58;;;8.70;99.90;;;;;;5014647;28;20026;-91
2022/11/29 02:15:06;;;;;;;458.17;55.67;;;8.70;99.90;;;;;;5016071;28;20037;-91
2022/11/29 02:17:50;;;;;;;192.57;42.70;;;8.70;99.90;;;;;;5017453;28;20026;-92
2022/11/29 02:20:37;;;;;;;255.63;46.58;;;8.70;99.90;;;;;;5013812;28;20026;-91
2022/11/29 02:23:29;;;;;;;206.00;44.88;;;8.70;99.90;;;;;;5023772;28;20125;-91
2022/11/29 02:26:19;;;;;;;598.08;60.10;;;8.70;99.90;;;;;;4979240;28;20124;-91
2022/11/29 02:29:16;;;;;;;296.85;48.97;;;8.70;99.90;;;;;;5022413;28;20030;-92
2022/11/29 02:31:53;;;;;;;173.57;44.92;;;8.60;99.90;;;;;;5026842;28;20053;-92
2022/11/29 02:34:31;;;;;;;231.68;46.28;;;8.60;99.90;;;;;;5013316;28;20029;-91
2022/11/29 02:37:05;;;;;;;307.67;46.90;;;8.60;99.90;;;;;;5014546;28;20026;-93
2022/11/29 02:39:58;;;;;;;183.93;47.38;;;8.60;99.90;;;;;;5012247;28;20096;-92
2022/11/29 02:42:48;;;;;;;291.60;50.22;;;8.70;99.90;;;;;;5012377;28;20049;-90
2022/11/29 02:45:42;;;;;;;173.35;45.42;;;8.70;99.90;;;;;;5022160;28;20030;-91
2022/11/29 02:48:27;;;;;;;152.45;47.75;;;8.70;99.90;;;;;;5027563;28;20085;-91
2022/11/29 02:51:13;;;;;;;191.13;46.47;;;8.80;99.90;;;;;;5007209;28;20030;-91
2022/11/29 02:53:54;;;;;;;224.40;46.90;;;8.80;99.90;;;;;;5013453;28;20479;-91
2022/11/29 02:56:45;;;;;;;191.30;46.63;;;8.70;99.90;;;;;;5013535;28;20057;-91
2022/11/29 02:59:39;;;;;;;190.98;45.20;;;8.80;99.90;;;;;;5005772;28;20022;-91
2022/11/29 03:02:26;;;;;;;163.68;46.38;;;8.80;99.90;;;;;;5028864;28;20030;-91
2022/11/29 03:05:17;;;;;;;254.25;49.40;;;8.80;99.90;;;;;;5021382;28;20068;-92
2022/11/29 03:08:05;;;;;;;231.02;48.05;;;8.80;99.90;;;;;;5014522;28;20447;-92
2022/11/29 03:10:57;;;;;;;172.50;44.92;;;8.80;99.90;;;;;;5010994;28;20030;-92
2022/11/29 03:13:33;;;;;;;177.60;46.67;;;8.80;99.90;;;;;;4997167;28;20438;-92
2022/11/29 03:16:16;;;;;;;160.80;45.80;;;8.80;99.90;;;;;;5014036;28;20037;-92
2022/11/29 03:19:10;;;;;;;266.58;49.75;;;8.80;99.90;;;;;;5030812;28;20124;-92
2022/11/29 03:22:04;;;;;;;172.65;45.63;;;8.80;99.90;;;;;;5004224;28;20021;-92
2022/11/29 03:24:48;;;;;;;178.93;44.30;;;8.80;99.90;;;;;;5006150;28;20053;-90
2022/11/29 03:27:25;;;;;;;169.40;45.00;;;8.80;99.90;;;;;;5009262;28;20086;-92
2022/11/29 03:29:57;;;;;;;163.85;44.95;;;8.90;99.90;;;;;;5014811;28;20034;-91
2022/11/29 03:32:44;;;;;;;161.60;45.35;;;8.80;99.90;;;;;;5008276;28;20034;-92
2022/11/29 03:35:47;;;;;;;159.40;43.70;;;8.80;99.90;;;;;;5018298;28;20030;-93
2022/11/29 03:38:13;;;;;;;168.63;42.70;;;8.90;99.90;;;;;;5014469;28;20081;-91
2022/11/29 03:40:50;;;;;;;162.50;40.53;;;8.90;99.90;;;;;;5015290;28;20030;-91
2022/11/29 03:43:22;;;;;;;180.57;43.33;;;8.80;99.90;;;;;;5025383;28;20056;-92
2022/11/29 03:45:54;;;;;;;165.18;43.40;;;8.80;99.90;;;;;;5017701;28;20038;-93
2022/11/29 03:48:29;;;;;;;189.50;42.58;;;8.80;99.90;;;;;;5017248;28;20064;-91
2022/11/29 03:51:36;;;;;;;162.63;42.08;;;8.80;99.90;;;;;;5017723;28;20447;-92
2022/11/29 03:54:08;;;;;;;160.32;41.75;;;8.80;99.90;;;;;;5009717;28;20541;-92
2022/11/29 03:56:35;;;;;;;;;;;8.80;99.90;;;;;;5030456;28;20032;-92
2022/11/29 03:59:18;;;;;;;154.20;38.70;;;8.80;99.90;;;;;;5018924;28;19917;-91
2022/11/29 04:02:25;;;;;;;148.80;37.65;;;8.80;99.90;;;;;;5016679;28;20048;-92
2022/11/29 04:05:12;;;;;;;153.10;39.05;;;8.90;99.90;;;;;;5015687;28;20038;-92
2022/11/29 04:07:50;;;;;;;148.43;36.47;;;8.80;99.90;;;;;;5016084;28;20025;-91
2022/11/29 04:10:23;;;;;;;157.55;39.45;;;8.80;99.90;;;;;;5026805;28;20407;-92
2022/11/29 04:13:01;;;;;;;153.38;38.17;;;8.80;99.90;;;;;;5014909;28;20356;-92
2022/11/29 04:15:44;;;;;;;172.05;38.97;;;8.70;99.90;;;;;;5015553;28;20080;-91
2022/11/29 04:18:28;;;;;;;167.25;39.78;;;8.70;99.90;;;;;;5022768;28;20136;-90
2022/11/29 04:21:00;;;;;;;167.18;39.88;;;8.80;99.90;;;;;;5014586;28;20026;-92
2022/11/29 04:23:45;;;;;;;177.25;40.95;;;8.70;99.90;;;;;;5014692;28;20084;-91
2022/11/29 04:26:29;;;;;;;162.80;38.95;;;8.70;99.90;;;;;;5015331;28;20030;-92
2022/11/29 04:29:22;;;;;;;165.02;37.88;;;8.80;99.90;;;;;;5030685;28;20160;-91
2022/11/29 04:32:18;;;;;;;169.60;38.13;;;8.70;99.90;;;;;;5029303;28;20105;-93
2022/11/29 04:35:02;;;;;;;168.35;38.58;;;8.70;99.90;;;;;;5027859;28;20030;-91
2022/11/29 04:37:46;;;;;;;187.43;41.08;;;8.80;99.90;;;;;;5015800;28;20026;-92
2022/11/29 04:40:30;;;;;;;179.95;41.78;;;8.80;99.90;;;;;;5029408;28;20057;-93
2022/11/29 04:43:02;;;;;;;157.85;38.65;;;8.80;99.90;;;;;;5014145;28;20030;-90
2022/11/29 04:45:38;;;;;;;173.73;40.65;;;8.80;99.90;;;;;;5029351;28;20030;-91
2022/11/29 04:48:16;;;;;;;169.15;39.00;;;8.80;99.90;;;;;;5016164;28;20029;-91
2022/11/29 04:51:06;;;;;;;155.98;38.50;;;8.80;99.90;;;;;;5013124;28;20165;-90
2022/11/29 04:53:46;;;;;;;152.23;36.97;;;8.80;99.90;;;;;;5014333;28;20030;-90
2022/11/29 04:56:24;;;;;;;158.02;38.00;;;8.70;99.90;;;;;;5015084;28;20021;-91
2022/11/29 04:59:10;;;;;;;146.65;37.42;;;8.80;99.90;;;;;;5023417;28;20034;-92
2022/11/29 05:01:49;;;;;;;217.23;41.03;;;8.80;99.90;;;;;;5012521;28;20025;-92
2022/11/29 05:04:19;;;;;;;149.20;37.40;;;8.80;99.90;;;;;;5014927;28;20557;-92
2022/11/29 05:06:57;;;;;;;145.43;37.97;;;8.80;99.90;;;;;;5016400;28;20061;-92
2022/11/29 05:09:35;;;;;;;164.00;39.17;;;8.80;99.90;;;;;;5027385;28;20034;-93
2022/11/29 05:12:13;;;;;;;129.30;36.40;;;8.80;99.90;;;;;;5012172;28;20037;-92
2022/11/29 05:15:08;;;;;;;142.82;37.60;;;8.80;99.90;;;;;;5025846;28;20029;-92
2022/11/29 05:17:59;;;;;;;161.63;40.63;;;8.70;99.90;;;;;;5017837;28;20037;-91
2022/11/29 05:20:36;;;;;;;125.43;38.15;;;8.70;99.90;;;;;;5015674;28;20033;-91
2022/11/29 05:23:07;;;;;;;146.55;39.60;;;8.70;99.90;;;;;;5016722;28;20038;-93
2022/11/29 05:25:54;;;;;;;142.88;39.90;;;8.70;99.90;;;;;;5016443;28;20487;-91
2022/11/29 05:28:31;;;;;;;134.27;38.28;;;8.70;99.90;;;;;;5011105;28;20049;-91
2022/11/29 05:30:56;;;;;;;131.57;38.67;;;8.60;99.90;;;;;;5011986;28;20022;-93
2022/11/29 05:33:43;;;;;;;131.10;38.40;;;8.60;99.90;;;;;;5023559;28;20394;-92
2022/11/29 05:36:42;;;;;;;144.98;37.70;;;8.50;99.90;;;;;;5021024;28;20026;-92
2022/11/29 05:39:30;;;;;;;119.38;37.00;;;8.50;99.90;;;;;;5023843;28;20025;-92
2022/11/29 05:42:30;;;;;;;166.70;38.83;;;8.40;99.90;;;;;;5005683;28;20033;-91
2022/11/29 05:45:21;;;;;;;120.18;37.40;;;8.40;99.90;;;;;;5014195;28;20100;-91
2022/11/29 05:48:21;;;;;;;212.02;39.90;;;8.40;99.90;;;;;;5014201;28;20042;-93
2022/11/29 05:51:20;;;;;;;191.50;39.85;;;8.30;99.90;;;;;;5029614;28;20026;-92
2022/11/29 05:54:08;;;;;;;108.85;36.50;;;8.30;99.90;;;;;;5004029;28;20038;-92
2022/11/29 05:56:52;;;;;;;132.13;38.50;;;8.20;99.90;;;;;;5014782;28;20037;-91
2022/11/29 05:59:23;;;;;;;147.25;38.45;;;8.30;99.90;;;;;;5025479;28;20080;-92
2022/11/29 06:02:01;;;;;;;124.80;37.95;;;8.30;99.90;;;;;;5030810;28;20071;-92
2022/11/29 06:04:51;;;;;;;121.63;37.50;;;8.30;99.90;;;;;;5027241;28;20523;-92
2022/11/29 06:07:39;;;;;;;156.18;38.22;;;8.30;99.90;;;;;;5014591;28;20066;-94
2022/11/29 06:10:11;;;;;;;124.95;36.88;;;8.20;99.90;;;;;;5026059;28;20030;-91
2022/11/29 06:12:37;;;;;;;116.38;38.58;;;8.30;99.90;;;;;;5021743;28;20072;-91
2022/11/29 06:15:39;;;;;;;123.57;35.42;;;8.30;99.90;;;;;;5014256;28;20022;-91
2022/11/29 06:18:26;;;;;;;106.03;35.30;;;8.30;99.90;;;;;;5014394;28;20075;-92
2022/11/29 06:21:21;;;;;;;121.43;37.63;;;8.20;99.90;;;;;;5029260;28;20396;-91
2022/11/29 06:24:04;;;;;;;313.90;42.53;;;8.20;99.90;;;;;;5013256;28;20038;-91
2022/11/29 06:27:08;;;;;;;193.25;37.05;;;8.20;99.90;;;;;;5015807;28;20022;-91
2022/11/29 06:29:58;;;;;;;183.27;36.25;;;8.30;99.90;;;;;;5034009;28;20085;-91
2022/11/29 06:32:33;;;;;;;146.43;36.28;;;8.20;99.90;;;;;;5011399;28;20049;-92
2022/11/29 06:35:03;;;;;;;159.93;36.60;;;8.20;99.90;;;;;;5013515;28;20022;-91
2022/11/29 06:37:40;;;;;;;113.85;34.05;;;8.20;99.90;;;;;;5026929;28;20030;-91
2022/11/29 06:40:10;;;;;;;163.85;37.15;;;8.20;99.90;;;;;;5027648;28;20109;-92
2022/11/29 06:42:36;;;;;;;125.57;34.92;;;8.20;99.90;;;;;;5008211;28;21006;-91
2022/11/29 06:45:02;;;;;;;108.93;33.30;;;8.20;99.90;;;;;;5016135;28;20076;-92
2022/11/29 06:47:43;;;;;;;104.05;30.80;;;8.20;99.90;;;;;;5011757;28;20041;-91
2022/11/29 06:50:32;;;;;;;94.80;28.10;;;8.20;99.90;;;;;;5013310;28;20436;-90
2022/11/29 06:53:23;;;;;;;95.90;27.88;;;8.20;99.90;;;;;;5005931;28;20026;-91
2022/11/29 06:55:56;;;;;;;90.57;25.83;;;8.10;99.90;;;;;;5032102;28;20030;-91
2022/11/29 06:58:38;;;;;;;86.20;27.83;;;8.20;99.90;;;;;;5012179;28;20022;-91
2022/11/29 07:01:22;;;;;;;84.72;25.48;;;8.20;99.90;;;;;;5014109;28;20036;-91
2022/11/29 07:04:03;;;;;;;95.38;28.98;;;8.20;99.90;;;;;;5014900;28;20041;-91
2022/11/29 07:06:30;;;;;;;95.70;25.98;;;8.20;99.90;;;;;;5012883;28;20129;-92
2022/11/29 07:09:09;;;;;;;87.00;27.52;;;8.20;99.90;;;;;;5011823;28;20036;-93
2022/11/29 07:11:35;;;;;;;86.20;26.08;;;8.20;99.90;;;;;;5025562;28;20036;-91
2022/11/29 07:14:00;;;;;;;101.75;29.27;;;8.10;99.90;;;;;;5013819;28;20022;-91
2022/11/29 07:16:40;;;;;;;100.05;29.83;;;8.10;99.90;;;;;;5015519;28;20069;-92
2022/11/29 07:19:25;;;;;;;81.28;25.95;;;8.10;99.90;;;;;;5018981;28;20030;-93
2022/11/29 07:22:28;;;;;;;83.70;25.33;;;8.20;99.90;;;;;;5023519;28;20026;-91
2022/11/29 07:25:15;;;;;;;80.75;25.90;;;8.20;99.90;;;;;;5026610;28;20060;-92
2022/11/29 07:27:51;;;;;;;85.47;26.65;;;8.20;99.90;;;;;;5005594;28;20035;-92
2022/11/29 07:30:23;;;;;;;89.13;26.38;;;8.20;99.90;;;;;;5013750;28;20589;-93
2022/11/29 07:32:57;;;;;;;82.80;25.15;;;8.20;99.90;;;;;;5025361;28;20053;-92
2022/11/29 07:35:43;;;;;;;92.07;25.40;;;8.20;99.90;;;;;;5006674;28;20040;-91
2022/11/29 07:38:17;;;;;;;76.50;23.33;;;8.10;99.90;;;;;;5014447;28;20077;-91
2022/11/29 07:41:02;;;;;;;82.63;24.75;;;8.10;99.90;;;;;;5010857;28;20025;-92
2022/11/29 07:43:30;;;;;;;81.93;25.02;;;8.10;99.90;;;;;;5003385;28;20065;-92
2022/11/29 07:45:56;;;;;;;81.13;24.35;;;8.10;99.90;;;;;;5012637;28;20108;-93
2022/11/29 07:48:22;;;;;;;96.68;25.88;;;8.10;99.90;;;;;;5009112;28;20484;-92
2022/11/29 07:50:48;;;;;;;86.50;25.63;;;8.10;99.90;;;;;;5004698;28;20033;-91
2022/11/29 07:53:16;;;;;;;90.22;24.42;;;8.10;99.90;;;;;;5003937;28;20033;-91
2022/11/29 07:55:42;;;;;;;95.47;25.60;;;8.10;99.90;;;;;;5020265;28;20022;-91
2022/11/29 07:58:13;;;;;;;94.03;26.65;;;8.10;99.90;;;;;;5008241;28;20037;-93
2022/11/29 08:00:40;;;;;;;85.18;26.40;;;8.10;99.90;;;;;;5008118;28;20025;-92
2022/11/29 08:03:07;;;;;;;104.32;27.67;;;8.10;99.90;;;;;;5007517;28;20033;-93
2022/11/29 08:05:33;;;;;;;96.00;26.73;;;8.10;99.90;;;;;;5002278;28;20018;-92
2022/11/29 08:07:59;;;;;;;92.50;25.67;;;8.10;99.90;;;;;;5006723;28;20034;-91
2022/11/29 08:10:24;;;;;;;84.78;24.95;;;8.00;99.90;;;;;;5010849;28;20030;-92
2022/11/29 08:12:51;;;;;;;90.10;24.70;;;8.00;99.90;;;;;;5014201;28;20040;-91
2022/11/29 08:15:19;;;;;;;86.65;24.95;;;8.00;99.90;;;;;;5015061;28;20034;-92
2022/11/29 08:17:44;;;;;;;79.05;23.35;;;8.00;99.90;;;;;;5015957;28;20041;-93
2022/11/29 08:20:12;;;;;;;97.88;23.63;;;8.00;99.90;;;;;;5010563;28;20022;-91
2022/11/29 08:22:37;;;;;;;116.32;23.35;;;8.00;99.90;;;;;;5009020;28;20503;-92
2022/11/29 08:25:05;;;;;;;89.00;20.65;;;8.00;99.90;;;;;;5035727;28;20033;-91
2022/11/29 08:27:31;;;;;;;78.05;21.17;;;8.00;99.90;;;;;;5013046;28;20030;-91
2022/11/29 08:29:57;;;;;;;73.00;22.33;;;8.00;99.90;;;;;;5014217;28;20030;-92
2022/11/29 08:32:22;;;;;;;72.05;20.65;;;8.00;99.90;;;;;;5015243;28;20029;-90
2022/11/29 08:34:48;;;;;;;67.32;22.17;;;7.90;99.90;;;;;;5012894;28;20125;-92
2022/11/29 08:37:14;;;;;;;119.15;23.65;;;7.90;99.90;;;;;;5018126;28;20034;-91
2022/11/29 08:39:40;;;;;;;80.93;22.45;;;8.00;99.90;;;;;;5013717;28;20129;-92
2022/11/29 08:42:06;;;;;;;84.78;22.83;;;7.90;99.90;;;;;;5024937;28;20080;-92
2022/11/29 08:44:32;;;;;;;77.93;22.50;;;8.00;99.90;;;;;;5015691;28;20037;-92
2022/11/29 08:50:00;;;;;;;74.22;21.02;;;8.00;99.90;;;;;;5013273;28;20544;-92
2022/11/29 08:55:20;;;;;;;80.10;22.35;;;8.00;99.90;;;;;;5003276;28;20041;-91
2022/11/29 08:57:47;;;;;;;63.83;20.67;;;8.00;99.90;;;;;;5021903;28;20033;-91
2022/11/29 09:00:14;;;;;;;63.05;21.13;;;8.00;99.90;;;;;;5024603;28;20022;-91
2022/11/29 09:02:40;;;;;;;71.35;20.23;;;8.00;99.90;;;;;;5018185;28;20034;-91
2022/11/29 09:05:07;;;;;;;66.10;21.70;;;8.00;99.90;;;;;;5015430;28;20037;-91
2022/11/29 09:07:32;;;;;;;74.43;22.15;;;8.00;99.90;;;;;;5015296;28;20053;-91
2022/11/29 09:10:03;;;;;;;69.45;21.75;;;8.00;99.90;;;;;;5015247;28;20034;-91
2022/11/29 09:12:29;;;;;;;71.20;23.00;;;8.10;99.90;;;;;;5005027;28;20161;-92
2022/11/29 09:14:55;;;;;;;56.65;20.63;;;8.10;99.90;;;;;;5010025;28;20030;-91
2022/11/29 09:17:20;;;;;;;72.70;22.23;;;8.20;99.90;;;;;;4993952;28;20026;-90
2022/11/29 09:19:46;;;;;;;66.45;22.33;;;8.20;99.90;;;;;;5008374;28;20472;-92
2022/11/29 09:22:12;;;;;;;59.03;20.52;;;8.20;99.90;;;;;;5011398;28;20472;-93
2022/11/29 09:24:37;;;;;;;62.08;21.60;;;8.30;99.90;;;;;;5011139;28;20494;-92
2022/11/29 09:27:03;;;;;;;68.22;21.23;;;8.20;99.90;;;;;;5009538;28;20021;-90
2022/11/29 09:29:28;;;;;;;57.10;21.42;;;8.20;99.90;;;;;;5017070;28;20080;-92
2022/11/29 09:31:54;;;;;;;61.67;21.35;;;8.20;99.90;;;;;;5021392;28;20058;-91
2022/11/29 09:34:20;;;;;;;56.10;19.23;;;8.30;99.90;;;;;;5026452;28;20091;-91
2022/11/29 09:36:47;;;;;;;62.25;22.77;;;8.30;99.90;;;;;;5027807;28;20034;-92
2022/11/29 09:39:12;;;;;;;64.32;21.55;;;8.30;99.90;;;;;;5014666;28;20050;-92
2022/11/29 09:41:48;;;;;;;74.40;25.60;;;8.40;99.90;;;;;;5019358;28;20037;-91
2022/11/29 09:44:42;;;;;;;88.97;23.90;;;8.50;99.90;;;;;;5028730;28;20041;-91
2022/11/29 09:47:35;;;;;;;63.08;22.13;;;8.50;99.90;;;;;;5021039;28;20113;-91
2022/11/29 09:50:33;;;;;;;57.50;21.80;;;8.50;99.90;;;;;;5031083;28;20026;-91
2022/11/29 09:53:37;;;;;;;62.35;22.25;;;8.50;99.90;;;;;;5019993;28;20030;-91
2022/11/29 09:56:25;;;;;;;62.70;21.80;;;8.50;99.90;;;;;;5030832;28;20076;-91
2022/11/29 09:59:04;;;;;;;67.22;21.67;;;8.50;99.90;;;;;;5015863;28;20198;-92
2022/11/29 10:01:38;;;;;;;62.13;21.05;;;8.60;99.90;;;;;;5021573;28;20026;-92
2022/11/29 10:04:15;;;;;;;52.85;19.05;;;8.60;99.90;;;;;;5005022;28;20396;-92
2022/11/29 10:06:57;;;;;;;55.42;20.25;;;8.70;99.90;;;;;;5033548;28;20037;-91
2022/11/29 10:09:36;;;;;;;57.80;20.10;;;8.60;99.90;;;;;;5019496;28;20046;-90
2022/11/29 10:12:35;;;;;;;50.47;19.05;;;8.60;99.90;;;;;;5016965;28;20021;-91
2022/11/29 10:15:07;;;;;;;54.60;18.10;;;8.60;99.90;;;;;;5015079;28;20033;-91
2022/11/29 10:17:37;;;;;;;55.97;19.63;;;8.60;99.90;;;;;;5013880;28;20026;-91
2022/11/29 10:20:46;;;;;;;54.40;19.45;;;8.60;99.90;;;;;;5026891;28;20513;-92
2022/11/29 10:23:35;;;;;;;62.28;19.40;;;8.60;99.90;;;;;;5013388;28;20072;-91
2022/11/29 10:26:06;;;;;;;55.80;20.33;;;8.80;99.90;;;;;;5013656;28;20472;-91
2022/11/29 10:28:34;;;;;;;56.05;18.95;;;8.80;99.90;;;;;;5014544;28;20044;-93
2022/11/29 10:31:20;;;;;;;54.90;19.48;;;8.90;99.90;;;;;;5017234;28;20029;-93
2022/11/29 10:33:47;;;;;;;55.35;18.75;;;8.90;99.90;;;;;;5016724;28;20025;-91
2022/11/29 10:36:28;;;;;;;63.75;19.27;;;8.90;99.90;;;;;;5024727;28;20022;-91
2022/11/29 10:38:58;;;;;;;58.25;19.42;;;8.90;99.90;;;;;;5021123;28;20030;-91
2022/11/29 10:41:24;;;;;;;58.55;21.40;;;8.90;99.90;;;;;;5033665;28;20075;-92
2022/11/29 10:43:53;;;;;;;62.22;19.55;;;8.90;99.90;;;;;;5019846;28;20040;-91
2022/11/29 10:46:31;;;;;;;72.82;20.45;;;8.90;99.90;;;;;;5015974;28;20046;-91
2022/11/29 10:49:09;;;;;;;56.38;18.48;;;8.90;99.90;;;;;;5014702;28;20033;-93
2022/11/29 10:51:34;;;;;;;57.65;19.63;;;8.80;99.90;;;;;;5023212;28;20097;-91
2022/11/29 10:54:18;;;;;;;62.78;19.95;;;8.70;99.90;;;;;;5026277;28;20053;-91
2022/11/29 10:56:44;;;;;;;61.00;19.60;;;8.70;99.90;;;;;;5015931;28;20068;-91
2022/11/29 10:59:26;;;;;;;74.57;19.65;;;8.80;99.90;;;;;;5019992;28;20439;-91
2022/11/29 11:01:52;;;;;;;65.88;19.70;;;8.90;99.90;;;;;;5016030;28;20058;-91
2022/11/29 11:04:30;;;;;;;69.07;21.10;;;8.90;99.90;;;;;;5019477;28;20089;-92
2022/11/29 11:07:00;;;;;;;67.25;20.75;;;9.00;99.90;;;;;;5023880;28;20043;-91
2022/11/29 11:09:41;;;;;;;66.60;20.45;;;9.00;99.90;;;;;;5010578;28;20089;-92
2022/11/29 11:12:18;;;;;;;54.95;17.70;;;9.00;99.90;;;;;;5030206;28;20029;-92
2022/11/29 11:14:45;;;;;;;53.70;17.73;;;9.00;99.90;;;;;;5033919;28;20082;-91
2022/11/29 11:17:35;;;;;;;53.67;17.42;;;9.00;99.90;;;;;;5031586;28;20036;-93
2022/11/29 11:20:17;;;;;;;56.08;18.35;;;9.00;99.90;;;;;;5018199;28;20112;-92
2022/11/29 11:22:43;;;;;;;56.42;17.45;;;9.00;99.90;;;;;;5023864;28;20026;-92
2022/11/29 11:25:26;;;;;;;56.47;18.25;;;9.00;99.90;;;;;;5011693;28;20041;-93
2022/11/29 11:27:54;;;;;;;53.88;16.88;;;9.00;99.90;;;;;;5022496;28;20033;-92
2022/11/29 11:30:26;;;;;;;51.20;17.85;;;9.00;99.90;;;;;;5006151;28;20029;-94
2022/11/29 11:33:18;;;;;;;52.13;18.45;;;9.10;99.90;;;;;;5000653;28;20052;-93
2022/11/29 11:35:58;;;;;;;46.47;15.75;;;9.10;99.90;;;;;;5017325;28;20040;-93
2022/11/29 11:38:24;;;;;;;53.90;17.08;;;9.10;99.90;;;;;;5020742;28;20114;-92
2022/11/29 11:41:04;;;;;;;54.28;16.65;;;9.10;99.90;;;;;;5015700;28;20061;-90
2022/11/29 11:43:30;;;;;;;46.63;15.70;;;9.10;99.90;;;;;;5012433;28;20030;-94
2022/11/29 11:45:56;;;;;;;40.47;16.90;;;9.10;99.90;;;;;;5027453;28;20041;-94
2022/11/29 11:48:22;;;;;;;46.28;17.27;;;9.00;99.90;;;;;;5018097;28;20124;-93
2022/11/29 11:50:55;;;;;;;45.00;16.88;;;9.00;99.90;;;;;;5021442;28;20391;-93
2022/11/29 11:53:35;;;;;;;52.17;16.95;;;8.90;99.90;;;;;;5021197;28;20034;-94
2022/11/29 11:56:11;;;;;;;47.85;17.80;;;8.90;99.90;;;;;;5026017;28;20526;-92
2022/11/29 11:58:53;;;;;;;45.67;17.25;;;8.90;99.90;;;;;;5016970;28;20022;-94
2022/11/29 12:01:35;;;;;;;53.67;19.02;;;8.90;99.90;;;;;;5014180;28;20479;-92
2022/11/29 12:04:21;;;;;;;53.03;19.30;;;8.90;99.90;;;;;;5021877;28;20191;-94
2022/11/29 12:06:50;;;;;;;53.83;18.63;;;9.00;99.90;;;;;;5017628;28;20021;-93
2022/11/29 12:09:47;;;;;;;51.83;17.45;;;9.10;99.90;;;;;;5024128;28;20521;-94
2022/11/29 12:12:19;;;;;;;48.80;17.92;;;9.10;99.90;;;;;;5005991;28;20034;-92
2022/11/29 12:15:07;;;;;;;49.95;18.42;;;9.10;99.90;;;;;;5014891;28;20033;-94
2022/11/29 12:17:44;;;;;;;52.13;18.77;;;9.10;99.90;;;;;;5036559;28;20034;-91
2022/11/29 12:20:21;;;;;;;54.60;19.60;;;9.10;99.90;;;;;;5022302;28;20029;-92
2022/11/29 12:23:11;;;;;;;53.67;19.88;;;9.10;99.90;;;;;;5024445;28;20089;-92
2022/11/29 12:26:12;;;;;;;55.83;19.13;;;9.20;99.90;;;;;;5021448;28;20034;-93
2022/11/29 12:28:40;;;;;;;52.70;18.20;;;9.20;99.90;;;;;;5012903;28;20065;-93
2022/11/29 12:31:34;;;;;;;57.58;19.80;;;9.20;99.90;;;;;;5026278;28;20022;-93
2022/11/29 12:34:15;;;;;;;56.45;19.75;;;9.30;99.90;;;;;;5002879;28;20030;-92
2022/11/29 12:36:52;;;;;;;59.38;18.23;;;9.30;99.90;;;;;;5001811;28;20017;-91
2022/11/29 12:39:39;;;;;;;51.22;18.90;;;9.20;99.90;;;;;;5031563;28;20072;-92
2022/11/29 12:42:27;;;;;;;48.40;18.92;;;9.20;99.90;;;;;;5032764;28;20026;-93
2022/11/29 12:44:59;;;;;;;53.83;19.15;;;9.30;99.90;;;;;;5031907;28;20045;-93
2022/11/29 12:47:43;;;;;;;48.72;18.20;;;9.30;99.90;;;;;;5016120;28;20045;-92
2022/11/29 12:50:27;;;;;;;52.13;19.20;;;9.30;99.90;;;;;;5027549;28;20111;-93
2022/11/29 12:52:59;;;;;;;53.65;18.60;;;9.30;99.90;;;;;;5041959;28;20120;-93
2022/11/29 12:55:37;;;;;;;50.30;17.73;;;9.30;99.90;;;;;;5015205;28;20518;-94
2022/11/29 12:58:10;;;;;;;50.17;17.63;;;9.30;99.90;;;;;;5033244;28;20577;-93
2022/11/29 13:01:14;;;;;;;48.75;17.70;;;9.20;99.90;;;;;;5007560;28;20836;-92
2022/11/29 13:04:29;;;;;;;52.20;17.45;;;9.20;99.90;;;;;;5029099;28;20267;-92
2022/11/29 13:07:03;;;;;;;45.10;16.95;;;9.20;99.90;;;;;;4979801;28;20487;-90
2022/11/29 13:09:47;;;;;;;41.85;16.73;;;9.20;99.90;;;;;;5026328;28;20037;-92
2022/11/29 13:12:23;;;;;;;42.75;17.17;;;9.20;99.90;;;;;;5012184;28;20033;-93
2022/11/29 13:15:22;;;;;;;50.78;18.65;;;9.20;99.90;;;;;;5022027;28;20081;-92
2022/11/29 13:18:02;;;;;;;44.03;17.40;;;9.30;99.90;;;;;;5012270;28;20062;-93
2022/11/29 13:20:51;;;;;;;43.72;17.05;;;9.30;99.90;;;;;;5009209;28;20029;-93
2022/11/29 13:23:31;;;;;;;56.67;19.50;;;9.30;99.90;;;;;;5028576;28;20046;-92
2022/11/29 13:25:59;;;;;;;50.92;18.63;;;9.30;99.90;;;;;;4998560;28;20026;-93
2022/11/29 13:28:28;;;;;;;46.97;18.45;;;9.40;99.90;;;;;;5016204;28;20478;-92